sensor_id;sensor_type;location;lat;lon;timestamp;P1;durP1;ratioP1;P2;durP2;ratioP2
43048;SDS011;28673;44.412;11.918;2023-06-14T00:01:57;4.97;;;3.45;;
43048;SDS011;28673;44.412;11.918;2023-06-14T00:04:23;5.00;;;2.75;;
43048;SDS011;28673;44.412;11.918;2023-06-14T00:06:50;9.90;;;2.90;;
43048;SDS011;28673;44.412;11.918;2023-06-14T00:09:16;4.32;;;3.10;;
43048;SDS011;28673;44.412;11.918;2023-06-14T00:11:45;6.88;;;2.83;;
43048;SDS011;28673;44.412;11.918;2023-06-14T00:14:11;5.55;;;2.92;;
43048;SDS011;28673;44.412;11.918;2023-06-14T00:16:37;6.07;;;3.28;;
43048;SDS011;28673;44.412;11.918;2023-06-14T00:19:04;9.98;;;2.40;;
43048;SDS011;28673;44.412;11.918;2023-06-14T00:21:30;3.13;;;2.83;;
43048;SDS011;28673;44.412;11.918;2023-06-14T00:23:57;13.98;;;3.08;;
43048;SDS011;28673;44.412;11.918;2023-06-14T00:26:24;7.28;;;3.00;;
43048;SDS011;28673;44.412;11.918;2023-06-14T00:28:51;4.63;;;2.72;;
43048;SDS011;28673;44.412;11.918;2023-06-14T00:31:18;4.20;;;2.50;;
43048;SDS011;28673;44.412;11.918;2023-06-14T00:33:43;4.88;;;2.50;;
43048;SDS011;28673;44.412;11.918;2023-06-14T00:36:11;4.88;;;2.88;;
43048;SDS011;28673;44.412;11.918;2023-06-14T00:38:37;3.90;;;2.58;;
43048;SDS011;28673;44.412;11.918;2023-06-14T00:41:03;8.48;;;3.10;;
43048;SDS011;28673;44.412;11.918;2023-06-14T00:43:29;3.55;;;2.60;;
43048;SDS011;28673;44.412;11.918;2023-06-14T00:45:55;5.82;;;2.67;;
43048;SDS011;28673;44.412;11.918;2023-06-14T00:48:20;8.35;;;3.17;;
43048;SDS011;28673;44.412;11.918;2023-06-14T00:50:47;3.08;;;2.80;;
43048;SDS011;28673;44.412;11.918;2023-06-14T00:53:16;4.25;;;2.70;;
43048;SDS011;28673;44.412;11.918;2023-06-14T00:55:50;4.85;;;3.05;;
43048;SDS011;28673;44.412;11.918;2023-06-14T00:58:16;5.28;;;3.10;;
43048;SDS011;28673;44.412;11.918;2023-06-14T01:00:42;5.05;;;2.75;;
43048;SDS011;28673;44.412;11.918;2023-06-14T01:03:09;6.00;;;3.08;;
43048;SDS011;28673;44.412;11.918;2023-06-14T01:05:37;9.60;;;3.63;;
43048;SDS011;28673;44.412;11.918;2023-06-14T01:08:15;5.38;;;2.88;;
43048;SDS011;28673;44.412;11.918;2023-06-14T01:13:33;7.95;;;3.03;;
43048;SDS011;28673;44.412;11.918;2023-06-14T01:16:03;9.85;;;3.08;;
43048;SDS011;28673;44.412;11.918;2023-06-14T01:18:30;3.72;;;2.80;;
43048;SDS011;28673;44.412;11.918;2023-06-14T01:20:57;10.32;;;3.45;;
43048;SDS011;28673;44.412;11.918;2023-06-14T01:23:23;7.75;;;4.05;;
43048;SDS011;28673;44.412;11.918;2023-06-14T01:25:51;11.05;;;4.25;;
43048;SDS011;28673;44.412;11.918;2023-06-14T01:28:20;13.88;;;3.78;;
43048;SDS011;28673;44.412;11.918;2023-06-14T01:30:48;7.43;;;3.97;;
43048;SDS011;28673;44.412;11.918;2023-06-14T01:33:19;9.85;;;4.57;;
43048;SDS011;28673;44.412;11.918;2023-06-14T01:35:48;12.57;;;3.40;;
43048;SDS011;28673;44.412;11.918;2023-06-14T01:38:15;4.72;;;3.60;;
43048;SDS011;28673;44.412;11.918;2023-06-14T01:40:44;10.13;;;3.92;;
43048;SDS011;28673;44.412;11.918;2023-06-14T01:43:14;8.00;;;4.25;;
43048;SDS011;28673;44.412;11.918;2023-06-14T01:45:41;4.83;;;3.23;;
43048;SDS011;28673;44.412;11.918;2023-06-14T01:48:09;6.80;;;3.55;;
43048;SDS011;28673;44.412;11.918;2023-06-14T01:50:35;4.93;;;3.20;;
43048;SDS011;28673;44.412;11.918;2023-06-14T01:53:03;4.38;;;3.08;;
43048;SDS011;28673;44.412;11.918;2023-06-14T01:55:36;6.35;;;2.95;;
43048;SDS011;28673;44.412;11.918;2023-06-14T01:58:06;6.97;;;2.85;;
43048;SDS011;28673;44.412;11.918;2023-06-14T02:00:32;6.88;;;2.95;;
43048;SDS011;28673;44.412;11.918;2023-06-14T02:02:57;3.15;;;2.45;;
43048;SDS011;28673;44.412;11.918;2023-06-14T02:05:25;4.70;;;3.08;;
43048;SDS011;28673;44.412;11.918;2023-06-14T02:07:51;9.93;;;2.97;;
43048;SDS011;28673;44.412;11.918;2023-06-14T02:10:21;9.77;;;3.57;;
43048;SDS011;28673;44.412;11.918;2023-06-14T02:12:47;3.15;;;2.67;;
43048;SDS011;28673;44.412;11.918;2023-06-14T02:15:13;4.22;;;2.55;;
43048;SDS011;28673;44.412;11.918;2023-06-14T02:17:43;4.72;;;3.35;;
43048;SDS011;28673;44.412;11.918;2023-06-14T02:20:10;4.75;;;3.35;;
43048;SDS011;28673;44.412;11.918;2023-06-14T02:22:36;12.93;;;4.45;;
43048;SDS011;28673;44.412;11.918;2023-06-14T02:25:02;4.65;;;3.70;;
43048;SDS011;28673;44.412;11.918;2023-06-14T02:27:28;5.72;;;3.13;;
43048;SDS011;28673;44.412;11.918;2023-06-14T02:29:54;8.43;;;3.80;;
43048;SDS011;28673;44.412;11.918;2023-06-14T02:32:19;10.85;;;5.15;;
43048;SDS011;28673;44.412;11.918;2023-06-14T02:34:45;10.48;;;5.10;;
43048;SDS011;28673;44.412;11.918;2023-06-14T02:37:15;10.57;;;5.05;;
43048;SDS011;28673;44.412;11.918;2023-06-14T02:39:42;7.13;;;5.07;;
43048;SDS011;28673;44.412;11.918;2023-06-14T02:42:07;7.38;;;4.90;;
43048;SDS011;28673;44.412;11.918;2023-06-14T02:44:33;6.50;;;4.70;;
43048;SDS011;28673;44.412;11.918;2023-06-14T02:47:00;8.55;;;3.75;;
43048;SDS011;28673;44.412;11.918;2023-06-14T02:49:26;10.25;;;4.90;;
43048;SDS011;28673;44.412;11.918;2023-06-14T02:51:53;8.60;;;6.55;;
43048;SDS011;28673;44.412;11.918;2023-06-14T02:54:19;9.35;;;5.25;;
43048;SDS011;28673;44.412;11.918;2023-06-14T02:56:45;5.85;;;4.72;;
43048;SDS011;28673;44.412;11.918;2023-06-14T02:59:11;7.60;;;5.45;;
43048;SDS011;28673;44.412;11.918;2023-06-14T03:01:39;14.32;;;5.63;;
43048;SDS011;28673;44.412;11.918;2023-06-14T03:04:09;9.82;;;5.55;;
43048;SDS011;28673;44.412;11.918;2023-06-14T03:06:38;6.95;;;5.22;;
43048;SDS011;28673;44.412;11.918;2023-06-14T03:09:05;8.02;;;5.15;;
43048;SDS011;28673;44.412;11.918;2023-06-14T03:11:33;6.38;;;4.72;;
43048;SDS011;28673;44.412;11.918;2023-06-14T03:13:59;7.35;;;4.40;;
43048;SDS011;28673;44.412;11.918;2023-06-14T03:16:26;13.95;;;4.97;;
43048;SDS011;28673;44.412;11.918;2023-06-14T03:18:55;11.90;;;5.20;;
43048;SDS011;28673;44.412;11.918;2023-06-14T03:21:24;14.45;;;5.88;;
43048;SDS011;28673;44.412;11.918;2023-06-14T03:23:52;12.38;;;5.70;;
43048;SDS011;28673;44.412;11.918;2023-06-14T03:26:18;7.40;;;5.00;;
43048;SDS011;28673;44.412;11.918;2023-06-14T03:28:47;8.10;;;6.28;;
43048;SDS011;28673;44.412;11.918;2023-06-14T03:31:17;7.53;;;5.03;;
43048;SDS011;28673;44.412;11.918;2023-06-14T03:33:45;8.02;;;6.43;;
43048;SDS011;28673;44.412;11.918;2023-06-14T03:36:11;16.90;;;6.20;;
43048;SDS011;28673;44.412;11.918;2023-06-14T03:38:39;8.95;;;6.47;;
43048;SDS011;28673;44.412;11.918;2023-06-14T03:41:05;13.27;;;5.97;;
43048;SDS011;28673;44.412;11.918;2023-06-14T03:43:31;8.95;;;6.45;;
43048;SDS011;28673;44.412;11.918;2023-06-14T03:45:59;10.95;;;5.38;;
43048;SDS011;28673;44.412;11.918;2023-06-14T03:48:26;9.52;;;5.30;;
43048;SDS011;28673;44.412;11.918;2023-06-14T03:50:52;11.95;;;5.63;;
43048;SDS011;28673;44.412;11.918;2023-06-14T03:53:20;8.57;;;4.80;;
43048;SDS011;28673;44.412;11.918;2023-06-14T03:55:49;6.32;;;4.35;;
43048;SDS011;28673;44.412;11.918;2023-06-14T03:58:19;6.25;;;4.55;;
43048;SDS011;28673;44.412;11.918;2023-06-14T04:00:45;13.02;;;4.45;;
43048;SDS011;28673;44.412;11.918;2023-06-14T04:03:11;9.30;;;4.35;;
43048;SDS011;28673;44.412;11.918;2023-06-14T04:05:39;5.20;;;3.50;;
43048;SDS011;28673;44.412;11.918;2023-06-14T04:08:08;19.98;;;4.13;;
43048;SDS011;28673;44.412;11.918;2023-06-14T04:10:36;5.30;;;4.13;;
43048;SDS011;28673;44.412;11.918;2023-06-14T04:13:01;6.43;;;3.97;;
43048;SDS011;28673;44.412;11.918;2023-06-14T04:15:28;8.30;;;3.50;;
43048;SDS011;28673;44.412;11.918;2023-06-14T04:17:55;7.85;;;3.92;;
43048;SDS011;28673;44.412;11.918;2023-06-14T04:20:23;14.13;;;4.65;;
43048;SDS011;28673;44.412;11.918;2023-06-14T04:22:52;5.68;;;3.78;;
43048;SDS011;28673;44.412;11.918;2023-06-14T04:25:18;6.68;;;4.10;;
43048;SDS011;28673;44.412;11.918;2023-06-14T04:27:46;5.15;;;3.60;;
43048;SDS011;28673;44.412;11.918;2023-06-14T04:30:12;11.48;;;4.78;;
43048;SDS011;28673;44.412;11.918;2023-06-14T04:32:47;12.95;;;4.30;;
43048;SDS011;28673;44.412;11.918;2023-06-14T04:35:15;13.82;;;4.28;;
43048;SDS011;28673;44.412;11.918;2023-06-14T04:37:43;7.50;;;5.07;;
43048;SDS011;28673;44.412;11.918;2023-06-14T04:40:11;11.55;;;3.88;;
43048;SDS011;28673;44.412;11.918;2023-06-14T04:42:37;7.32;;;4.55;;
43048;SDS011;28673;44.412;11.918;2023-06-14T04:45:06;6.75;;;4.03;;
43048;SDS011;28673;44.412;11.918;2023-06-14T04:47:35;9.85;;;4.18;;
43048;SDS011;28673;44.412;11.918;2023-06-14T04:50:05;5.65;;;3.95;;
43048;SDS011;28673;44.412;11.918;2023-06-14T04:52:31;7.90;;;3.75;;
43048;SDS011;28673;44.412;11.918;2023-06-14T04:54:58;13.82;;;3.85;;
43048;SDS011;28673;44.412;11.918;2023-06-14T04:57:25;5.03;;;3.50;;
43048;SDS011;28673;44.412;11.918;2023-06-14T04:59:54;5.95;;;3.60;;
43048;SDS011;28673;44.412;11.918;2023-06-14T05:02:24;3.63;;;2.95;;
43048;SDS011;28673;44.412;11.918;2023-06-14T05:04:52;15.63;;;4.55;;
43048;SDS011;28673;44.412;11.918;2023-06-14T05:07:19;4.97;;;3.30;;
43048;SDS011;28673;44.412;11.918;2023-06-14T05:09:47;6.82;;;3.53;;
43048;SDS011;28673;44.412;11.918;2023-06-14T05:12:13;9.20;;;3.83;;
43048;SDS011;28673;44.412;11.918;2023-06-14T05:14:43;8.73;;;3.38;;
43048;SDS011;28673;44.412;11.918;2023-06-14T05:17:09;4.43;;;3.58;;
43048;SDS011;28673;44.412;11.918;2023-06-14T05:19:35;5.50;;;3.55;;
43048;SDS011;28673;44.412;11.918;2023-06-14T05:22:01;6.88;;;3.42;;
43048;SDS011;28673;44.412;11.918;2023-06-14T05:24:28;5.78;;;4.15;;
43048;SDS011;28673;44.412;11.918;2023-06-14T05:26:56;13.93;;;3.95;;
43048;SDS011;28673;44.412;11.918;2023-06-14T05:29:22;5.93;;;3.67;;
43048;SDS011;28673;44.412;11.918;2023-06-14T05:31:47;7.28;;;4.07;;
43048;SDS011;28673;44.412;11.918;2023-06-14T05:34:13;11.75;;;4.35;;
43048;SDS011;28673;44.412;11.918;2023-06-14T05:36:39;11.98;;;4.55;;
43048;SDS011;28673;44.412;11.918;2023-06-14T05:39:05;10.55;;;4.55;;
43048;SDS011;28673;44.412;11.918;2023-06-14T05:41:32;15.98;;;4.13;;
43048;SDS011;28673;44.412;11.918;2023-06-14T05:43:57;9.98;;;4.18;;
43048;SDS011;28673;44.412;11.918;2023-06-14T05:46:25;7.40;;;3.55;;
43048;SDS011;28673;44.412;11.918;2023-06-14T05:48:51;4.22;;;3.25;;
43048;SDS011;28673;44.412;11.918;2023-06-14T05:51:17;5.20;;;3.40;;
43048;SDS011;28673;44.412;11.918;2023-06-14T05:53:44;4.80;;;3.42;;
43048;SDS011;28673;44.412;11.918;2023-06-14T05:56:11;9.60;;;4.38;;
43048;SDS011;28673;44.412;11.918;2023-06-14T05:58:37;4.25;;;3.55;;
43048;SDS011;28673;44.412;11.918;2023-06-14T06:01:04;10.05;;;4.00;;
43048;SDS011;28673;44.412;11.918;2023-06-14T06:03:29;8.55;;;3.28;;
43048;SDS011;28673;44.412;11.918;2023-06-14T06:05:55;7.40;;;3.42;;
43048;SDS011;28673;44.412;11.918;2023-06-14T06:08:21;6.63;;;3.63;;
43048;SDS011;28673;44.412;11.918;2023-06-14T06:10:47;8.05;;;3.25;;
43048;SDS011;28673;44.412;11.918;2023-06-14T06:13:13;7.55;;;3.92;;
43048;SDS011;28673;44.412;11.918;2023-06-14T06:15:39;7.57;;;3.22;;
43048;SDS011;28673;44.412;11.918;2023-06-14T06:18:05;12.63;;;3.65;;
43048;SDS011;28673;44.412;11.918;2023-06-14T06:20:31;8.73;;;3.42;;
43048;SDS011;28673;44.412;11.918;2023-06-14T06:22:58;12.02;;;4.20;;
43048;SDS011;28673;44.412;11.918;2023-06-14T06:25:24;5.25;;;3.58;;
43048;SDS011;28673;44.412;11.918;2023-06-14T06:27:52;4.30;;;2.90;;
43048;SDS011;28673;44.412;11.918;2023-06-14T06:30:19;11.80;;;3.70;;
43048;SDS011;28673;44.412;11.918;2023-06-14T06:32:45;6.05;;;2.85;;
43048;SDS011;28673;44.412;11.918;2023-06-14T06:35:11;4.93;;;3.10;;
43048;SDS011;28673;44.412;11.918;2023-06-14T06:37:39;4.65;;;3.50;;
43048;SDS011;28673;44.412;11.918;2023-06-14T06:40:07;6.32;;;4.18;;
43048;SDS011;28673;44.412;11.918;2023-06-14T06:42:33;5.93;;;3.67;;
43048;SDS011;28673;44.412;11.918;2023-06-14T06:45:03;5.53;;;3.65;;
43048;SDS011;28673;44.412;11.918;2023-06-14T06:47:29;15.00;;;4.90;;
43048;SDS011;28673;44.412;11.918;2023-06-14T06:49:56;4.47;;;3.55;;
43048;SDS011;28673;44.412;11.918;2023-06-14T06:52:22;6.85;;;4.55;;
43048;SDS011;28673;44.412;11.918;2023-06-14T06:54:48;8.13;;;3.83;;
43048;SDS011;28673;44.412;11.918;2023-06-14T06:57:14;12.23;;;4.80;;
43048;SDS011;28673;44.412;11.918;2023-06-14T06:59:40;6.70;;;4.80;;
43048;SDS011;28673;44.412;11.918;2023-06-14T07:02:06;9.50;;;4.78;;
43048;SDS011;28673;44.412;11.918;2023-06-14T07:04:32;12.27;;;4.88;;
43048;SDS011;28673;44.412;11.918;2023-06-14T07:06:57;11.73;;;5.03;;
43048;SDS011;28673;44.412;11.918;2023-06-14T07:09:23;10.63;;;4.53;;
43048;SDS011;28673;44.412;11.918;2023-06-14T07:11:49;7.28;;;4.68;;
43048;SDS011;28673;44.412;11.918;2023-06-14T07:14:16;6.30;;;4.75;;
43048;SDS011;28673;44.412;11.918;2023-06-14T07:16:42;11.07;;;5.40;;
43048;SDS011;28673;44.412;11.918;2023-06-14T07:19:08;10.50;;;5.65;;
43048;SDS011;28673;44.412;11.918;2023-06-14T07:21:35;6.63;;;5.40;;
43048;SDS011;28673;44.412;11.918;2023-06-14T07:24:04;7.63;;;4.40;;
43048;SDS011;28673;44.412;11.918;2023-06-14T07:26:33;5.05;;;3.80;;
43048;SDS011;28673;44.412;11.918;2023-06-14T07:29:00;12.27;;;5.20;;
43048;SDS011;28673;44.412;11.918;2023-06-14T07:31:27;10.55;;;6.43;;
43048;SDS011;28673;44.412;11.918;2023-06-14T07:33:53;12.35;;;6.35;;
43048;SDS011;28673;44.412;11.918;2023-06-14T07:36:18;6.78;;;5.60;;
43048;SDS011;28673;44.412;11.918;2023-06-14T07:38:45;7.38;;;5.22;;
43048;SDS011;28673;44.412;11.918;2023-06-14T07:41:11;12.85;;;6.80;;
43048;SDS011;28673;44.412;11.918;2023-06-14T07:43:37;10.77;;;7.63;;
43048;SDS011;28673;44.412;11.918;2023-06-14T07:46:03;10.77;;;6.82;;
43048;SDS011;28673;44.412;11.918;2023-06-14T07:48:30;10.98;;;7.07;;
43048;SDS011;28673;44.412;11.918;2023-06-14T07:50:56;13.15;;;6.90;;
43048;SDS011;28673;44.412;11.918;2023-06-14T07:53:22;11.65;;;7.97;;
43048;SDS011;28673;44.412;11.918;2023-06-14T07:55:48;14.88;;;8.20;;
43048;SDS011;28673;44.412;11.918;2023-06-14T07:58:14;10.20;;;7.82;;
43048;SDS011;28673;44.412;11.918;2023-06-14T08:00:40;13.52;;;6.68;;
43048;SDS011;28673;44.412;11.918;2023-06-14T08:03:06;9.38;;;7.60;;
43048;SDS011;28673;44.412;11.918;2023-06-14T08:05:32;15.73;;;8.82;;
43048;SDS011;28673;44.412;11.918;2023-06-14T08:07:58;14.68;;;8.82;;
43048;SDS011;28673;44.412;11.918;2023-06-14T08:10:24;13.95;;;7.32;;
43048;SDS011;28673;44.412;11.918;2023-06-14T08:12:50;9.95;;;7.50;;
43048;SDS011;28673;44.412;11.918;2023-06-14T08:15:17;12.52;;;6.13;;
43048;SDS011;28673;44.412;11.918;2023-06-14T08:17:43;8.40;;;6.50;;
43048;SDS011;28673;44.412;11.918;2023-06-14T08:20:10;10.48;;;5.97;;
43048;SDS011;28673;44.412;11.918;2023-06-14T08:22:36;25.30;;;9.10;;
43048;SDS011;28673;44.412;11.918;2023-06-14T08:25:02;9.65;;;6.18;;
43048;SDS011;28673;44.412;11.918;2023-06-14T08:27:29;13.75;;;8.10;;
43048;SDS011;28673;44.412;11.918;2023-06-14T08:29:55;11.10;;;6.78;;
43048;SDS011;28673;44.412;11.918;2023-06-14T08:32:22;12.50;;;6.85;;
43048;SDS011;28673;44.412;11.918;2023-06-14T08:34:48;16.73;;;7.22;;
43048;SDS011;28673;44.412;11.918;2023-06-14T08:37:14;20.55;;;8.80;;
43048;SDS011;28673;44.412;11.918;2023-06-14T08:39:40;12.30;;;8.05;;
43048;SDS011;28673;44.412;11.918;2023-06-14T08:42:06;13.68;;;7.55;;
43048;SDS011;28673;44.412;11.918;2023-06-14T08:44:34;9.13;;;6.07;;
43048;SDS011;28673;44.412;11.918;2023-06-14T08:47:00;7.90;;;5.65;;
43048;SDS011;28673;44.412;11.918;2023-06-14T08:49:28;8.10;;;5.18;;
43048;SDS011;28673;44.412;11.918;2023-06-14T08:51:57;9.25;;;6.45;;
43048;SDS011;28673;44.412;11.918;2023-06-14T08:54:28;7.57;;;4.95;;
43048;SDS011;28673;44.412;11.918;2023-06-14T08:56:59;8.90;;;5.43;;
43048;SDS011;28673;44.412;11.918;2023-06-14T08:59:26;6.85;;;5.20;;
43048;SDS011;28673;44.412;11.918;2023-06-14T09:01:52;9.52;;;5.45;;
43048;SDS011;28673;44.412;11.918;2023-06-14T09:04:20;7.05;;;5.20;;
43048;SDS011;28673;44.412;11.918;2023-06-14T09:06:47;9.05;;;4.43;;
43048;SDS011;28673;44.412;11.918;2023-06-14T09:09:22;8.07;;;4.85;;
43048;SDS011;28673;44.412;11.918;2023-06-14T09:11:52;5.38;;;3.97;;
43048;SDS011;28673;44.412;11.918;2023-06-14T09:14:18;7.68;;;3.45;;
43048;SDS011;28673;44.412;11.918;2023-06-14T09:16:44;8.93;;;4.45;;
43048;SDS011;28673;44.412;11.918;2023-06-14T09:19:14;5.20;;;4.50;;
43048;SDS011;28673;44.412;11.918;2023-06-14T09:21:47;5.60;;;4.80;;
43048;SDS011;28673;44.412;11.918;2023-06-14T09:24:14;7.40;;;5.22;;
43048;SDS011;28673;44.412;11.918;2023-06-14T09:26:40;9.60;;;4.68;;
43048;SDS011;28673;44.412;11.918;2023-06-14T09:29:06;5.65;;;3.72;;
43048;SDS011;28673;44.412;11.918;2023-06-14T09:31:34;4.30;;;3.60;;
43048;SDS011;28673;44.412;11.918;2023-06-14T09:34:02;13.30;;;3.60;;
43048;SDS011;28673;44.412;11.918;2023-06-14T09:36:28;6.18;;;4.40;;
43048;SDS011;28673;44.412;11.918;2023-06-14T09:38:57;4.28;;;3.88;;
43048;SDS011;28673;44.412;11.918;2023-06-14T09:41:35;4.28;;;3.85;;
43048;SDS011;28673;44.412;11.918;2023-06-14T09:44:04;3.97;;;3.58;;
43048;SDS011;28673;44.412;11.918;2023-06-14T09:46:31;5.25;;;4.10;;
43048;SDS011;28673;44.412;11.918;2023-06-14T09:48:58;4.93;;;4.22;;
43048;SDS011;28673;44.412;11.918;2023-06-14T09:51:24;4.85;;;3.83;;
43048;SDS011;28673;44.412;11.918;2023-06-14T09:53:52;9.18;;;3.67;;
43048;SDS011;28673;44.412;11.918;2023-06-14T09:56:29;3.63;;;3.22;;
43048;SDS011;28673;44.412;11.918;2023-06-14T09:58:57;7.20;;;4.03;;
43048;SDS011;28673;44.412;11.918;2023-06-14T10:01:24;4.22;;;3.70;;
43048;SDS011;28673;44.412;11.918;2023-06-14T10:03:55;7.75;;;3.63;;
43048;SDS011;28673;44.412;11.918;2023-06-14T10:06:29;5.03;;;3.75;;
43048;SDS011;28673;44.412;11.918;2023-06-14T10:08:59;8.30;;;3.75;;
43048;SDS011;28673;44.412;11.918;2023-06-14T10:11:25;4.43;;;3.30;;
43048;SDS011;28673;44.412;11.918;2023-06-14T10:13:55;8.75;;;3.92;;
43048;SDS011;28673;44.412;11.918;2023-06-14T10:16:28;4.53;;;3.10;;
43048;SDS011;28673;44.412;11.918;2023-06-14T10:24:15;7.03;;;5.03;;
43048;SDS011;28673;44.412;11.918;2023-06-14T10:26:54;6.55;;;4.72;;
43048;SDS011;28673;44.412;11.918;2023-06-14T10:29:22;4.95;;;4.38;;
43048;SDS011;28673;44.412;11.918;2023-06-14T10:31:56;6.35;;;4.47;;
43048;SDS011;28673;44.412;11.918;2023-06-14T10:34:27;6.25;;;4.75;;
43048;SDS011;28673;44.412;11.918;2023-06-14T10:37:00;5.88;;;5.25;;
43048;SDS011;28673;44.412;11.918;2023-06-14T10:39:32;6.35;;;5.22;;
43048;SDS011;28673;44.412;11.918;2023-06-14T10:42:08;7.25;;;5.75;;
43048;SDS011;28673;44.412;11.918;2023-06-14T10:44:50;10.70;;;5.90;;
43048;SDS011;28673;44.412;11.918;2023-06-14T10:47:35;11.60;;;5.57;;
43048;SDS011;28673;44.412;11.918;2023-06-14T10:52:43;8.13;;;6.10;;
43048;SDS011;28673;44.412;11.918;2023-06-14T10:55:10;6.75;;;5.10;;
43048;SDS011;28673;44.412;11.918;2023-06-14T10:57:41;7.50;;;5.70;;
43048;SDS011;28673;44.412;11.918;2023-06-14T11:00:09;9.20;;;6.10;;
43048;SDS011;28673;44.412;11.918;2023-06-14T11:05:48;8.25;;;5.40;;
43048;SDS011;28673;44.412;11.918;2023-06-14T11:11:10;5.25;;;4.47;;
43048;SDS011;28673;44.412;11.918;2023-06-14T11:13:39;5.53;;;4.22;;
43048;SDS011;28673;44.412;11.918;2023-06-14T11:16:13;13.02;;;5.30;;
43048;SDS011;28673;44.412;11.918;2023-06-14T11:18:40;6.55;;;4.25;;
43048;SDS011;28673;44.412;11.918;2023-06-14T11:21:07;6.50;;;3.70;;
43048;SDS011;28673;44.412;11.918;2023-06-14T11:23:34;7.15;;;4.65;;
43048;SDS011;28673;44.412;11.918;2023-06-14T11:26:00;8.82;;;4.57;;
43048;SDS011;28673;44.412;11.918;2023-06-14T11:28:36;6.35;;;4.78;;
43048;SDS011;28673;44.412;11.918;2023-06-14T11:31:06;5.82;;;4.07;;
43048;SDS011;28673;44.412;11.918;2023-06-14T11:33:32;7.10;;;4.88;;
43048;SDS011;28673;44.412;11.918;2023-06-14T11:36:01;10.02;;;3.72;;
43048;SDS011;28673;44.412;11.918;2023-06-14T11:38:28;12.18;;;4.43;;
43048;SDS011;28673;44.412;11.918;2023-06-14T11:40:58;10.95;;;3.65;;
43048;SDS011;28673;44.412;11.918;2023-06-14T11:43:24;6.90;;;3.75;;
43048;SDS011;28673;44.412;11.918;2023-06-14T11:45:51;5.97;;;3.50;;
43048;SDS011;28673;44.412;11.918;2023-06-14T11:48:18;8.82;;;3.60;;
43048;SDS011;28673;44.412;11.918;2023-06-14T11:50:49;4.20;;;3.10;;
43048;SDS011;28673;44.412;11.918;2023-06-14T11:53:16;5.32;;;3.10;;
43048;SDS011;28673;44.412;11.918;2023-06-14T11:55:43;3.53;;;2.85;;
43048;SDS011;28673;44.412;11.918;2023-06-14T11:58:11;6.88;;;2.92;;
43048;SDS011;28673;44.412;11.918;2023-06-14T12:00:38;5.25;;;3.55;;
43048;SDS011;28673;44.412;11.918;2023-06-14T12:03:04;4.80;;;3.30;;
43048;SDS011;28673;44.412;11.918;2023-06-14T12:05:32;4.40;;;2.95;;
43048;SDS011;28673;44.412;11.918;2023-06-14T12:07:59;5.55;;;3.33;;
43048;SDS011;28673;44.412;11.918;2023-06-14T12:10:27;4.05;;;3.10;;
43048;SDS011;28673;44.412;11.918;2023-06-14T12:12:59;6.75;;;2.85;;
43048;SDS011;28673;44.412;11.918;2023-06-14T12:15:28;4.75;;;2.63;;
43048;SDS011;28673;44.412;11.918;2023-06-14T12:17:55;6.20;;;2.83;;
43048;SDS011;28673;44.412;11.918;2023-06-14T12:20:21;5.07;;;3.03;;
43048;SDS011;28673;44.412;11.918;2023-06-14T12:22:54;4.10;;;2.92;;
43048;SDS011;28673;44.412;11.918;2023-06-14T12:27:56;5.35;;;3.45;;
43048;SDS011;28673;44.412;11.918;2023-06-14T12:30:23;5.28;;;2.97;;
43048;SDS011;28673;44.412;11.918;2023-06-14T12:32:48;3.95;;;2.97;;
43048;SDS011;28673;44.412;11.918;2023-06-14T12:35:17;4.65;;;3.35;;
43048;SDS011;28673;44.412;11.918;2023-06-14T12:37:46;7.20;;;2.85;;
43048;SDS011;28673;44.412;11.918;2023-06-14T12:40:12;7.85;;;3.05;;
43048;SDS011;28673;44.412;11.918;2023-06-14T12:42:39;4.35;;;2.83;;
43048;SDS011;28673;44.412;11.918;2023-06-14T12:45:06;4.40;;;3.15;;
43048;SDS011;28673;44.412;11.918;2023-06-14T12:47:32;3.90;;;3.00;;
43048;SDS011;28673;44.412;11.918;2023-06-14T12:49:58;5.78;;;3.03;;
43048;SDS011;28673;44.412;11.918;2023-06-14T12:52:24;6.57;;;3.00;;
43048;SDS011;28673;44.412;11.918;2023-06-14T12:54:50;7.50;;;3.08;;
43048;SDS011;28673;44.412;11.918;2023-06-14T12:57:16;3.15;;;2.47;;
43048;SDS011;28673;44.412;11.918;2023-06-14T12:59:41;5.28;;;2.75;;
43048;SDS011;28673;44.412;11.918;2023-06-14T13:02:14;4.00;;;2.47;;
43048;SDS011;28673;44.412;11.918;2023-06-14T13:04:47;2.47;;;2.22;;
43048;SDS011;28673;44.412;11.918;2023-06-14T13:07:13;2.85;;;2.40;;
43048;SDS011;28673;44.412;11.918;2023-06-14T13:09:40;6.22;;;2.08;;
43048;SDS011;28673;44.412;11.918;2023-06-14T13:12:06;2.30;;;2.10;;
43048;SDS011;28673;44.412;11.918;2023-06-14T13:14:33;4.45;;;2.22;;
43048;SDS011;28673;44.412;11.918;2023-06-14T13:16:59;2.25;;;1.92;;
43048;SDS011;28673;44.412;11.918;2023-06-14T13:19:25;3.55;;;2.72;;
43048;SDS011;28673;44.412;11.918;2023-06-14T13:21:51;3.15;;;2.30;;
43048;SDS011;28673;44.412;11.918;2023-06-14T13:24:17;2.58;;;1.95;;
43048;SDS011;28673;44.412;11.918;2023-06-14T13:26:43;3.38;;;2.25;;
43048;SDS011;28673;44.412;11.918;2023-06-14T13:29:09;3.35;;;2.22;;
43048;SDS011;28673;44.412;11.918;2023-06-14T13:31:35;2.30;;;1.98;;
43048;SDS011;28673;44.412;11.918;2023-06-14T13:34:03;3.10;;;2.15;;
43048;SDS011;28673;44.412;11.918;2023-06-14T13:36:30;2.85;;;1.83;;
43048;SDS011;28673;44.412;11.918;2023-06-14T13:38:56;5.72;;;2.33;;
43048;SDS011;28673;44.412;11.918;2023-06-14T13:41:25;2.88;;;2.00;;
43048;SDS011;28673;44.412;11.918;2023-06-14T13:43:57;3.40;;;1.88;;
43048;SDS011;28673;44.412;11.918;2023-06-14T13:46:23;3.13;;;2.00;;
43048;SDS011;28673;44.412;11.918;2023-06-14T13:48:50;3.33;;;1.80;;
43048;SDS011;28673;44.412;11.918;2023-06-14T13:51:15;2.83;;;2.15;;
43048;SDS011;28673;44.412;11.918;2023-06-14T13:53:53;3.72;;;1.73;;
43048;SDS011;28673;44.412;11.918;2023-06-14T13:56:20;3.75;;;2.30;;
43048;SDS011;28673;44.412;11.918;2023-06-14T13:58:47;3.42;;;2.20;;
43048;SDS011;28673;44.412;11.918;2023-06-14T14:01:13;2.28;;;2.08;;
43048;SDS011;28673;44.412;11.918;2023-06-14T14:03:39;3.50;;;1.70;;
43048;SDS011;28673;44.412;11.918;2023-06-14T14:06:05;3.40;;;2.15;;
43048;SDS011;28673;44.412;11.918;2023-06-14T14:08:32;3.05;;;1.85;;
43048;SDS011;28673;44.412;11.918;2023-06-14T14:10:58;2.28;;;1.60;;
43048;SDS011;28673;44.412;11.918;2023-06-14T14:13:24;4.65;;;1.60;;
43048;SDS011;28673;44.412;11.918;2023-06-14T14:15:50;2.03;;;1.60;;
43048;SDS011;28673;44.412;11.918;2023-06-14T14:18:16;5.93;;;2.00;;
43048;SDS011;28673;44.412;11.918;2023-06-14T14:20:42;2.30;;;1.73;;
43048;SDS011;28673;44.412;11.918;2023-06-14T14:23:08;2.50;;;1.85;;
43048;SDS011;28673;44.412;11.918;2023-06-14T14:25:34;2.00;;;1.52;;
43048;SDS011;28673;44.412;11.918;2023-06-14T14:28:00;5.20;;;2.38;;
43048;SDS011;28673;44.412;11.918;2023-06-14T14:30:26;2.95;;;1.92;;
43048;SDS011;28673;44.412;11.918;2023-06-14T14:32:53;2.33;;;1.90;;
43048;SDS011;28673;44.412;11.918;2023-06-14T14:35:19;6.32;;;1.98;;
43048;SDS011;28673;44.412;11.918;2023-06-14T14:37:44;2.88;;;1.92;;
43048;SDS011;28673;44.412;11.918;2023-06-14T14:40:11;4.00;;;2.00;;
43048;SDS011;28673;44.412;11.918;2023-06-14T14:42:37;2.28;;;2.05;;
43048;SDS011;28673;44.412;11.918;2023-06-14T14:45:03;2.30;;;1.80;;
43048;SDS011;28673;44.412;11.918;2023-06-14T14:47:29;6.15;;;1.95;;
43048;SDS011;28673;44.412;11.918;2023-06-14T14:49:55;2.85;;;2.03;;
43048;SDS011;28673;44.412;11.918;2023-06-14T14:52:21;2.97;;;2.03;;